Time;durP1;ratioP1;P1;durP2;ratioP2;P2;SDS_P1;SDS_P2;PMS_P1;PMS_P2;Temp;Humidity;BMP_temperature;BMP_pressure;BME280_temperature;BME280_humidity;BME280_pressure;Samples;Min_cycle;Max_cycle;Signal;HPM_P1;HPM_P2
2022/04/21 00:00:48;;;;;;;8.63;6.47;;;6.80;75.60;;;;;;5068529;28;20492;-74
2022/04/21 00:03:15;;;;;;;6.53;5.93;;;6.80;75.80;;;;;;5063640;28;20572;-71
2022/04/21 00:05:42;;;;;;;13.20;7.20;;;6.70;75.60;;;;;;5067146;28;20488;-72
2022/04/21 00:08:09;;;;;;;9.60;7.13;;;6.80;75.40;;;;;;5068966;28;20826;-73
2022/04/21 00:10:37;;;;;;;9.33;6.90;;;6.80;75.10;;;;;;5073993;28;20998;-73
2022/04/21 00:13:05;;;;;;;7.87;6.60;;;6.80;75.10;;;;;;5063199;28;20486;-76
2022/04/21 00:15:33;;;;;;;8.17;6.43;;;6.80;75.00;;;;;;5070657;28;20495;-76
2022/04/21 00:18:01;;;;;;;10.33;7.47;;;6.80;75.30;;;;;;5073156;28;20486;-72
2022/04/21 00:20:28;;;;;;;7.13;6.30;;;6.80;75.00;;;;;;5073467;28;20490;-74
2022/04/21 00:25:39;;;;;;;7.37;6.67;;;6.70;75.70;;;;;;5060603;28;20941;-74
2022/04/21 00:28:07;;;;;;;12.03;7.10;;;6.70;75.80;;;;;;5070315;28;20499;-73
2022/04/21 00:30:35;;;;;;;8.97;7.83;;;6.70;75.40;;;;;;5073910;28;20474;-74
2022/04/21 00:33:02;;;;;;;6.67;5.97;;;6.70;75.30;;;;;;5070480;28;21041;-73
2022/04/21 00:35:29;;;;;;;7.30;6.60;;;6.70;75.30;;;;;;5071368;28;21023;-74
2022/04/21 00:37:58;;;;;;;7.50;6.40;;;6.70;75.60;;;;;;5072227;28;20483;-72
2022/04/21 00:40:27;;;;;;;7.43;6.50;;;6.70;75.70;;;;;;5061466;28;20811;-76
2022/04/21 00:42:54;;;;;;;8.03;6.50;;;6.70;75.60;;;;;;5081163;28;20525;-74
2022/04/21 00:45:22;;;;;;;7.57;6.83;;;6.70;75.40;;;;;;5072181;28;20564;-76
2022/04/21 00:47:51;;;;;;;8.43;6.60;;;6.50;75.50;;;;;;5078198;28;20485;-76
2022/04/21 00:50:22;;;;;;;8.20;6.33;;;6.50;75.60;;;;;;5075886;28;20493;-73
2022/04/21 00:52:50;;;;;;;8.60;6.80;;;6.50;76.00;;;;;;5068865;28;21101;-73
2022/04/21 00:55:18;;;;;;;7.43;6.23;;;6.50;75.80;;;;;;5066533;28;20486;-78
2022/04/21 00:57:48;;;;;;;7.20;6.23;;;6.50;75.60;;;;;;5077655;28;20483;-75
2022/04/21 01:00:17;;;;;;;9.50;7.10;;;6.50;75.10;;;;;;5065967;28;20482;-73
2022/04/21 01:02:47;;;;;;;6.70;5.83;;;6.60;75.10;;;;;;5072852;28;20487;-73
2022/04/21 01:05:15;;;;;;;9.73;6.57;;;6.50;75.40;;;;;;5066582;28;20476;-74
2022/04/21 01:07:44;;;;;;;11.63;6.70;;;6.50;75.50;;;;;;5077360;28;20482;-75
2022/04/21 01:10:13;;;;;;;8.77;7.07;;;6.50;75.50;;;;;;5065182;28;20483;-75
2022/04/21 01:12:43;;;;;;;6.63;6.03;;;6.60;75.30;;;;;;5074216;28;21004;-76
2022/04/21 01:15:10;;;;;;;9.00;7.00;;;6.60;75.20;;;;;;5063550;28;20843;-75
2022/04/21 01:17:39;;;;;;;7.33;6.20;;;6.50;75.20;;;;;;5071981;28;20495;-75
2022/04/21 01:20:08;;;;;;;9.03;7.37;;;6.50;74.30;;;;;;5067124;28;20972;-75
2022/04/21 01:22:36;;;;;;;5.87;5.30;;;6.50;74.20;;;;;;5069061;28;20487;-75
2022/04/21 01:25:03;;;;;;;7.07;6.47;;;6.50;74.60;;;;;;5074103;28;20839;-74
2022/04/21 01:27:33;;;;;;;10.23;6.50;;;6.50;74.80;;;;;;5061291;28;20877;-71
2022/04/21 01:30:03;;;;;;;12.23;7.30;;;6.50;74.50;;;;;;5059406;28;20489;-73
2022/04/21 01:32:31;;;;;;;11.37;7.10;;;6.40;75.30;;;;;;5087877;28;20479;-74
2022/04/21 01:34:58;;;;;;;11.40;7.30;;;6.40;75.90;;;;;;5059223;28;20473;-74
2022/04/21 01:42:58;;;;;;;8.17;6.53;;;6.20;76.50;;;;;;5053150;28;21126;-74
2022/04/21 01:45:25;;;;;;;9.00;6.60;;;6.20;76.80;;;;;;5065703;28;20464;-72
2022/04/21 01:47:53;;;;;;;13.53;6.37;;;6.20;76.60;;;;;;5063732;28;20490;-74
2022/04/21 01:50:21;;;;;;;7.10;6.30;;;6.20;76.50;;;;;;5073070;28;20501;-74
2022/04/21 01:52:48;;;;;;;11.50;6.63;;;6.20;76.10;;;;;;5070446;28;20484;-74
2022/04/21 01:55:16;;;;;;;14.13;7.60;;;6.20;75.40;;;;;;5069478;28;20472;-73
2022/04/21 01:57:43;;;;;;;8.53;7.17;;;6.20;75.90;;;;;;5068551;28;20481;-74
2022/04/21 02:00:11;;;;;;;10.90;7.93;;;6.20;76.40;;;;;;5072561;28;20530;-75
2022/04/21 02:02:37;;;;;;;8.63;7.10;;;6.20;76.60;;;;;;5064676;28;20567;-75
2022/04/21 02:05:05;;;;;;;7.20;6.57;;;6.20;76.80;;;;;;5069988;28;20558;-73
2022/04/21 02:07:31;;;;;;;12.30;6.73;;;6.10;76.70;;;;;;5070155;28;20505;-75
2022/04/21 02:10:00;;;;;;;7.93;7.13;;;6.10;77.10;;;;;;5079257;28;20490;-73
2022/04/21 02:12:29;;;;;;;9.33;6.27;;;6.10;76.70;;;;;;5070933;28;20554;-75
2022/04/21 02:14:56;;;;;;;9.33;7.03;;;6.10;77.40;;;;;;5066877;28;20781;-77
2022/04/21 02:17:25;;;;;;;8.50;6.10;;;6.10;76.10;;;;;;5066259;28;21225;-76
2022/04/21 02:19:52;;;;;;;8.40;6.40;;;6.10;76.10;;;;;;5066309;28;20477;-74
2022/04/21 02:22:19;;;;;;;8.50;7.00;;;6.10;76.10;;;;;;5061646;28;20559;-77
2022/04/21 02:24:46;;;;;;;7.90;6.60;;;6.10;76.80;;;;;;5070967;28;20878;-78
2022/04/21 02:27:13;;;;;;;8.90;6.90;;;5.80;76.60;;;;;;5067313;28;20508;-76
2022/04/21 02:29:41;;;;;;;7.20;5.60;;;5.70;76.50;;;;;;5070737;28;20508;-75
2022/04/21 02:32:08;;;;;;;6.70;5.77;;;5.70;76.00;;;;;;5072342;28;20962;-74
2022/04/21 02:34:35;;;;;;;9.70;7.00;;;5.70;76.10;;;;;;5070107;28;21012;-74
2022/04/21 02:37:02;;;;;;;7.30;5.87;;;5.60;76.10;;;;;;5069981;28;20558;-76
2022/04/21 02:39:29;;;;;;;7.90;6.10;;;5.50;77.00;;;;;;5075834;28;20482;-74
2022/04/21 02:41:55;;;;;;;6.87;6.13;;;5.50;76.80;;;;;;5077228;27;20487;-78
2022/04/21 02:44:23;;;;;;;9.40;6.47;;;5.50;76.90;;;;;;5071433;28;20492;-77
2022/04/21 02:46:52;;;;;;;8.40;6.47;;;5.40;77.30;;;;;;5072606;28;20512;-76
2022/04/21 02:49:19;;;;;;;8.07;7.07;;;5.30;77.30;;;;;;5057399;28;20865;-77
2022/04/21 02:51:45;;;;;;;8.37;6.50;;;5.30;77.20;;;;;;5075335;28;20565;-74
2022/04/21 02:59:50;;;;;;;15.07;7.23;;;5.30;77.80;;;;;;5044977;28;20815;-75
2022/04/21 03:02:19;;;;;;;7.90;6.53;;;5.30;78.00;;;;;;5070815;28;20480;-74
2022/04/21 03:04:47;;;;;;;8.27;6.63;;;5.30;77.80;;;;;;5066418;28;20492;-77
2022/04/21 03:07:14;;;;;;;6.47;5.90;;;5.30;77.40;;;;;;5068649;28;20954;-75
2022/04/21 03:09:41;;;;;;;6.67;6.00;;;5.30;77.40;;;;;;5071535;28;20902;-74
2022/04/21 03:12:09;;;;;;;8.63;6.47;;;5.30;77.40;;;;;;5070275;28;20507;-73
2022/04/21 03:14:37;;;;;;;5.80;5.03;;;5.30;76.90;;;;;;5057993;28;20473;-75
2022/04/21 03:17:06;;;;;;;7.80;6.50;;;5.20;77.10;;;;;;5078494;28;20556;-75
2022/04/21 03:19:35;;;;;;;6.87;6.23;;;5.20;77.30;;;;;;5071601;28;20469;-76
2022/04/21 03:24:47;;;;;;;8.30;6.83;;;4.80;78.60;;;;;;5067346;28;20501;-73
2022/04/21 03:27:14;;;;;;;8.40;7.60;;;4.60;80.10;;;;;;5061177;28;20474;-73
2022/04/21 03:29:44;;;;;;;6.97;6.27;;;4.50;81.80;;;;;;5069293;28;20492;-73
2022/04/21 03:32:13;;;;;;;8.90;7.80;;;4.60;82.70;;;;;;5058044;28;20476;-74
2022/04/21 03:34:43;;;;;;;9.47;7.23;;;4.60;83.40;;;;;;5066505;28;20481;-73
2022/04/21 03:37:13;;;;;;;8.00;7.13;;;4.70;83.10;;;;;;5070705;28;20844;-74
2022/04/21 03:39:40;;;;;;;11.60;6.67;;;4.80;81.90;;;;;;5066286;28;20490;-75
2022/04/21 03:42:17;;;;;;;11.77;7.83;;;4.90;80.90;;;;;;5070937;28;20473;-75
2022/04/21 03:44:45;;;;;;;8.40;7.03;;;5.00;80.50;;;;;;5067199;28;20510;-70
2022/04/21 03:47:12;;;;;;;8.50;7.13;;;5.10;81.90;;;;;;5078492;28;20498;-74
2022/04/21 03:49:38;;;;;;;8.57;7.43;;;5.10;83.40;;;;;;5073120;28;20494;-74
2022/04/21 03:52:08;;;;;;;9.30;6.93;;;5.10;84.00;;;;;;5074593;28;20485;-76
2022/04/21 03:54:34;;;;;;;8.03;7.20;;;5.30;83.00;;;;;;5069661;28;20480;-74
2022/04/21 03:57:01;;;;;;;9.57;7.60;;;5.30;82.50;;;;;;5078006;28;20499;-76
2022/04/21 03:59:28;;;;;;;7.67;6.90;;;5.40;81.60;;;;;;5074089;28;20480;-72
2022/04/21 04:02:02;;;;;;;10.70;6.80;;;5.40;80.60;;;;;;5078305;28;20474;-72
2022/04/21 04:04:30;;;;;;;8.97;7.20;;;5.40;79.80;;;;;;5035105;28;20523;-76
2022/04/21 04:12:37;;;;;;;7.43;6.50;;;5.40;78.40;;;;;;5076063;28;21086;-72
2022/04/21 04:15:08;;;;;;;10.10;7.00;;;5.40;79.60;;;;;;5069410;28;20484;-76
2022/04/21 04:17:35;;;;;;;12.30;7.00;;;5.40;80.20;;;;;;5073093;28;20541;-71
2022/04/21 04:20:02;;;;;;;8.97;7.17;;;5.30;80.50;;;;;;5070186;28;21026;-76
2022/04/21 04:22:28;;;;;;;10.43;7.00;;;5.20;80.00;;;;;;5073804;28;20486;-73
2022/04/21 04:24:58;;;;;;;7.97;6.50;;;5.20;79.80;;;;;;5077735;28;20823;-76
2022/04/21 04:27:25;;;;;;;11.67;7.60;;;5.10;81.10;;;;;;5075448;28;20495;-73
2022/04/21 04:29:52;;;;;;;15.00;7.87;;;5.10;82.00;;;;;;5075866;28;20493;-74
2022/04/21 04:32:20;;;;;;;11.27;6.83;;;5.20;82.10;;;;;;5072929;28;21862;-77
2022/04/21 04:34:46;;;;;;;12.60;7.63;;;5.20;82.30;;;;;;5069664;28;20562;-76
2022/04/21 04:37:13;;;;;;;8.70;6.43;;;5.30;82.30;;;;;;5071358;28;20508;-75
2022/04/21 04:39:41;;;;;;;7.27;6.50;;;5.30;81.30;;;;;;5072850;28;20483;-74
2022/04/21 04:42:20;;;;;;;9.20;6.60;;;5.30;80.70;;;;;;5069290;28;21908;-77
2022/04/21 04:44:49;;;;;;;10.70;6.77;;;5.30;80.30;;;;;;5087658;28;20547;-73
2022/04/21 04:47:16;;;;;;;7.80;7.00;;;5.30;80.80;;;;;;5044230;28;20841;-74
2022/04/21 04:49:43;;;;;;;9.37;7.57;;;5.30;80.70;;;;;;5078444;28;20985;-75
2022/04/21 04:52:09;;;;;;;8.63;7.50;;;5.30;80.80;;;;;;5078541;28;20581;-76
2022/04/21 04:54:37;;;;;;;8.40;7.47;;;5.30;80.70;;;;;;5079680;28;20486;-78
2022/04/21 04:57:04;;;;;;;8.60;7.73;;;5.40;80.90;;;;;;5074033;28;20481;-73
2022/04/21 04:59:32;;;;;;;9.07;7.67;;;5.40;81.60;;;;;;5071590;28;20498;-73
2022/04/21 05:01:59;;;;;;;10.90;8.20;;;5.40;82.00;;;;;;5065563;28;20485;-76
2022/04/21 05:04:26;;;;;;;9.23;8.27;;;5.50;84.10;;;;;;5081484;28;20482;-78
2022/04/21 05:06:57;;;;;;;14.07;9.37;;;5.60;84.50;;;;;;5065009;28;21146;-79
2022/04/21 05:09:24;;;;;;;14.73;9.00;;;5.70;85.40;;;;;;5075526;28;20478;-78
2022/04/21 05:11:53;;;;;;;11.07;9.10;;;5.70;86.10;;;;;;5079751;28;20483;-77
2022/04/21 05:14:21;;;;;;;8.87;7.77;;;5.80;86.30;;;;;;5076787;28;20509;-76
2022/04/21 05:17:01;;;;;;;15.23;9.13;;;5.90;86.90;;;;;;5071739;28;20833;-76
2022/04/21 05:19:29;;;;;;;10.33;9.07;;;6.10;87.20;;;;;;5072559;28;20474;-76
2022/04/21 05:22:01;;;;;;;12.83;9.23;;;6.10;86.90;;;;;;5076758;28;20484;-75
2022/04/21 05:24:31;;;;;;;10.97;8.73;;;6.20;87.50;;;;;;5067018;28;20711;-79
2022/04/21 05:26:58;;;;;;;10.63;9.20;;;6.30;87.20;;;;;;5066625;28;20511;-75
2022/04/21 05:32:18;;;;;;;12.70;11.40;;;6.60;86.40;;;;;;5072999;28;20519;-79
2022/04/21 05:34:45;;;;;;;50.20;28.50;;;6.80;86.20;;;;;;5075398;28;20475;-76
2022/04/21 05:37:13;;;;;;;72.67;40.30;;;6.80;86.30;;;;;;5075331;28;20515;-74
2022/04/21 05:39:40;;;;;;;20.77;16.20;;;7.00;86.20;;;;;;5070466;28;20489;-79
2022/04/21 05:42:10;;;;;;;25.27;15.07;;;7.10;85.70;;;;;;5068959;28;20471;-78
2022/04/21 05:44:38;;;;;;;18.17;13.47;;;7.30;85.60;;;;;;5066744;28;20484;-80
2022/04/21 05:47:05;;;;;;;18.00;15.10;;;7.40;85.70;;;;;;5063710;28;21536;-79
2022/04/21 05:49:34;;;;;;;15.03;12.13;;;7.50;85.80;;;;;;5074860;28;20472;-75
2022/04/21 05:52:02;;;;;;;11.73;10.30;;;7.60;85.90;;;;;;5071183;28;21006;-78
2022/04/21 05:54:29;;;;;;;17.23;11.80;;;7.80;85.70;;;;;;5082357;28;20491;-77
2022/04/21 05:56:57;;;;;;;13.17;10.20;;;8.00;85.80;;;;;;5075087;28;20477;-76
2022/04/21 05:59:23;;;;;;;13.27;9.70;;;8.10;85.70;;;;;;5075453;28;20486;-77
2022/04/21 06:01:50;;;;;;;10.00;9.00;;;8.30;85.80;;;;;;5064826;28;20492;-77
2022/04/21 06:04:21;;;;;;;9.90;8.70;;;8.60;85.50;;;;;;5076088;28;20473;-76
2022/04/21 06:06:50;;;;;;;11.30;9.23;;;8.90;85.50;;;;;;5068338;28;20848;-76
2022/04/21 06:09:17;;;;;;;14.20;10.27;;;9.10;85.40;;;;;;5071629;28;20478;-76
2022/04/21 06:11:44;;;;;;;14.70;9.23;;;9.50;85.40;;;;;;5074971;28;20487;-75
2022/04/21 06:14:11;;;;;;;10.77;9.70;;;9.90;84.50;;;;;;5070354;28;20935;-80
2022/04/21 06:16:37;;;;;;;11.90;9.70;;;10.20;81.80;;;;;;5066021;28;20495;-74
2022/04/21 06:19:04;;;;;;;13.83;10.33;;;10.50;81.20;;;;;;5066591;28;20486;-79
2022/04/21 06:21:31;;;;;;;14.97;9.00;;;10.80;81.00;;;;;;5077912;28;20486;-78
2022/04/21 06:23:59;;;;;;;10.80;9.23;;;11.10;81.50;;;;;;5071912;28;20487;-75
2022/04/21 06:26:27;;;;;;;16.97;10.63;;;11.30;79.50;;;;;;5067870;28;20917;-78
2022/04/21 06:28:57;;;;;;;10.03;9.10;;;11.80;81.00;;;;;;5071543;28;20482;-80
2022/04/21 06:31:23;;;;;;;12.70;9.40;;;12.40;79.40;;;;;;5056960;28;20507;-75
2022/04/21 06:33:51;;;;;;;14.80;9.67;;;12.80;76.40;;;;;;5070515;28;20471;-77
2022/04/21 06:36:18;;;;;;;10.43;8.83;;;13.10;76.90;;;;;;5065907;28;21403;-75
2022/04/21 06:38:45;;;;;;;11.30;10.10;;;13.40;75.30;;;;;;5070799;28;20475;-82
2022/04/21 06:41:13;;;;;;;10.33;9.33;;;13.90;75.60;;;;;;5063770;28;20490;-74
2022/04/21 06:49:08;;;;;;;11.93;10.50;;;15.20;71.60;;;;;;5063410;28;20487;-73
2022/04/21 06:51:35;;;;;;;10.17;9.17;;;15.60;72.00;;;;;;5066237;28;21032;-75
2022/04/21 06:54:01;;;;;;;14.90;10.70;;;15.70;69.30;;;;;;5072073;28;20486;-78
2022/04/21 06:56:29;;;;;;;12.63;10.17;;;15.80;68.90;;;;;;5053838;28;20696;-81
2022/04/21 06:58:58;;;;;;;11.13;9.53;;;15.80;69.00;;;;;;5064254;28;20479;-76
2022/04/21 07:01:24;;;;;;;14.67;10.87;;;15.70;68.70;;;;;;5058128;28;20891;-75
2022/04/21 07:03:51;;;;;;;13.10;10.13;;;15.50;68.90;;;;;;5071506;28;20907;-76
2022/04/21 07:06:18;;;;;;;12.63;10.00;;;15.30;68.70;;;;;;5068814;28;21031;-76
2022/04/21 07:08:45;;;;;;;13.50;10.47;;;15.10;68.40;;;;;;5064497;28;20482;-80
2022/04/21 07:11:12;;;;;;;13.30;11.73;;;15.00;68.90;;;;;;5066808;28;20481;-78
2022/04/21 07:13:40;;;;;;;12.93;10.80;;;14.90;69.60;;;;;;5071659;28;20562;-74
2022/04/21 07:16:06;;;;;;;13.53;11.13;;;14.80;68.90;;;;;;5066682;28;20486;-79
2022/04/21 07:18:34;;;;;;;11.13;10.03;;;14.90;69.80;;;;;;5063945;28;20698;-81
2022/04/21 07:21:03;;;;;;;11.27;9.17;;;14.80;69.00;;;;;;5071092;28;20493;-77
2022/04/21 07:23:31;;;;;;;15.10;8.00;;;14.70;69.00;;;;;;5070779;28;20482;-81
2022/04/21 07:25:57;;;;;;;13.97;10.60;;;14.50;68.40;;;;;;5070073;28;20548;-80
2022/04/21 07:28:24;;;;;;;13.50;11.87;;;14.60;69.90;;;;;;5068051;28;20941;-76
2022/04/21 07:30:52;;;;;;;11.40;9.70;;;14.70;70.30;;;;;;5057864;28;20916;-79
2022/04/21 07:33:19;;;;;;;10.43;8.20;;;14.70;69.70;;;;;;5067837;28;20927;-78
2022/04/21 07:35:46;;;;;;;15.27;11.27;;;14.70;69.10;;;;;;5066430;28;20935;-78
2022/04/21 07:38:13;;;;;;;14.00;10.20;;;14.80;70.70;;;;;;5066766;28;20839;-81
2022/04/21 07:40:41;;;;;;;12.53;9.77;;;15.00;69.30;;;;;;5070136;28;20555;-79
2022/04/21 07:43:08;;;;;;;9.47;7.77;;;15.10;68.70;;;;;;5068800;28;20473;-81
2022/04/21 07:45:38;;;;;;;15.90;11.63;;;15.10;68.40;;;;;;5066136;28;21053;-76
2022/04/21 07:48:06;;;;;;;13.83;11.37;;;15.20;70.30;;;;;;5064269;28;20757;-77
2022/04/21 07:50:34;;;;;;;12.27;10.93;;;15.20;68.70;;;;;;5065522;28;20593;-75
2022/04/21 07:53:18;;;;;;;15.70;10.80;;;15.30;69.10;;;;;;5066478;28;20905;-80
2022/04/21 07:55:46;;;;;;;11.67;10.47;;;15.30;67.90;;;;;;5062130;28;20492;-77
2022/04/21 07:58:14;;;;;;;15.67;11.07;;;15.40;69.90;;;;;;5068303;28;20474;-75
2022/04/21 08:00:41;;;;;;;11.63;10.40;;;15.40;68.30;;;;;;5064302;28;20497;-76
2022/04/21 08:03:10;;;;;;;13.30;9.67;;;15.40;68.10;;;;;;5068994;28;20579;-76
2022/04/21 08:05:40;;;;;;;13.93;11.47;;;15.40;67.70;;;;;;5062748;28;20968;-74
2022/04/21 08:08:10;;;;;;;14.30;11.13;;;15.50;68.10;;;;;;5060012;28;20613;-77
2022/04/21 08:10:37;;;;;;;12.83;10.90;;;15.60;68.30;;;;;;5064903;28;20934;-79
2022/04/21 08:13:04;;;;;;;12.27;10.97;;;15.70;68.40;;;;;;5065574;28;20555;-76
2022/04/21 08:15:32;;;;;;;15.57;10.80;;;16.00;68.90;;;;;;5068297;28;20628;-78
2022/04/21 08:18:02;;;;;;;13.60;12.00;;;16.20;68.30;;;;;;5068556;28;20485;-78
2022/04/21 08:20:32;;;;;;;12.40;11.17;;;16.40;69.20;;;;;;5067000;28;20469;-77
2022/04/21 08:22:59;;;;;;;12.03;10.77;;;16.60;66.90;;;;;;5066827;28;20466;-78
2022/04/21 08:33:39;;;;;;;13.20;11.13;;;17.20;66.20;;;;;;5049563;28;20504;-77
2022/04/21 08:36:07;;;;;;;11.10;10.00;;;17.30;66.30;;;;;;5068373;28;21046;-79
2022/04/21 08:38:36;;;;;;;11.83;9.83;;;17.30;65.90;;;;;;5066388;28;20477;-84
2022/04/21 08:41:07;;;;;;;11.53;10.43;;;17.30;65.10;;;;;;5068485;28;20478;-79
2022/04/21 08:43:35;;;;;;;13.63;10.30;;;17.40;65.60;;;;;;5070136;28;21324;-76
2022/04/21 08:46:05;;;;;;;13.43;9.50;;;17.50;65.70;;;;;;5070256;28;20490;-73
2022/04/21 08:48:33;;;;;;;11.00;9.67;;;17.80;68.70;;;;;;5049915;28;20475;-76
2022/04/21 08:51:03;;;;;;;11.30;9.07;;;18.00;65.90;;;;;;5042675;28;20496;-77
2022/04/21 08:53:32;;;;;;;10.50;9.60;;;18.20;65.30;;;;;;5069746;28;20915;-78
2022/04/21 08:56:00;;;;;;;10.60;9.07;;;18.30;63.70;;;;;;5058664;28;20850;-75
2022/04/21 08:58:29;;;;;;;10.53;8.67;;;18.30;64.30;;;;;;5070956;28;20577;-76
2022/04/21 09:00:57;;;;;;;11.90;9.60;;;18.40;64.70;;;;;;5070180;28;20481;-78
2022/04/21 09:03:26;;;;;;;9.60;8.80;;;18.40;63.60;;;;;;5071202;28;22670;-77
2022/04/21 09:05:53;;;;;;;12.53;9.70;;;18.30;63.10;;;;;;5064462;28;21006;-76
2022/04/21 09:08:21;;;;;;;12.27;7.80;;;18.30;62.70;;;;;;5069057;28;20473;-76
2022/04/21 09:11:06;;;;;;;8.53;7.67;;;18.20;63.00;;;;;;5069973;28;20486;-77
2022/04/21 09:13:38;;;;;;;8.63;7.90;;;18.10;63.20;;;;;;5059546;28;20474;-75
2022/04/21 09:16:07;;;;;;;8.17;7.27;;;18.20;64.80;;;;;;5049554;28;20458;-76
2022/04/21 09:18:39;;;;;;;8.10;7.40;;;18.30;63.30;;;;;;5071388;28;20508;-77
2022/04/21 09:21:09;;;;;;;8.33;7.43;;;18.30;63.90;;;;;;5058350;28;20505;-78
2022/04/21 09:23:38;;;;;;;8.37;7.40;;;18.30;63.90;;;;;;5069751;28;20484;-80
2022/04/21 09:26:11;;;;;;;8.90;7.30;;;18.40;63.70;;;;;;5067249;28;20918;-78
2022/04/21 09:28:38;;;;;;;8.63;7.73;;;18.80;65.30;;;;;;5059838;27;20486;-79
2022/04/21 09:31:07;;;;;;;7.83;7.03;;;19.00;63.30;;;;;;5067027;28;20495;-77
2022/04/21 09:33:35;;;;;;;8.27;7.43;;;19.10;61.70;;;;;;5049368;28;20842;-81
2022/04/21 09:36:05;;;;;;;6.93;6.27;;;19.10;63.20;;;;;;5067605;28;20463;-77
2022/04/21 09:38:35;;;;;;;9.50;7.00;;;19.00;61.50;;;;;;5068267;28;20466;-76
2022/04/21 09:41:10;;;;;;;5.40;5.00;;;18.90;60.70;;;;;;5069208;28;20483;-75
2022/04/21 09:43:38;;;;;;;6.37;5.77;;;19.10;65.70;;;;;;5068242;28;20899;-74
2022/04/21 09:46:12;;;;;;;8.80;6.53;;;19.00;61.60;;;;;;5064321;28;20465;-76
2022/04/21 09:48:39;;;;;;;6.53;5.90;;;19.10;62.60;;;;;;5056894;28;20559;-78
2022/04/21 09:51:12;;;;;;;7.07;6.40;;;19.00;61.10;;;;;;5069603;28;20989;-79
2022/04/21 09:53:56;;;;;;;8.30;6.20;;;19.10;62.50;;;;;;5057759;28;20484;-77
2022/04/21 09:56:33;;;;;;;7.50;6.80;;;19.20;61.90;;;;;;5063647;28;20528;-78
2022/04/21 09:59:03;;;;;;;5.77;5.27;;;19.20;62.30;;;;;;5058784;28;20484;-77
2022/04/21 10:01:30;;;;;;;5.37;4.87;;;19.30;63.70;;;;;;5059699;28;21370;-76
2022/04/21 10:03:57;;;;;;;4.97;4.57;;;19.40;63.20;;;;;;5064142;28;20531;-77
2022/04/21 10:06:26;;;;;;;5.10;4.60;;;19.60;62.50;;;;;;5066706;28;20486;-78
2022/04/21 10:08:55;;;;;;;7.27;5.23;;;19.50;61.40;;;;;;5054132;28;20932;-73
2022/04/21 10:11:24;;;;;;;5.53;5.10;;;19.50;61.50;;;;;;5068015;28;21022;-78
2022/04/21 10:13:56;;;;;;;4.10;3.80;;;19.50;63.70;;;;;;5069323;28;20485;-78
2022/04/21 10:16:24;;;;;;;6.03;5.43;;;19.40;61.30;;;;;;5062021;28;20479;-77
2022/04/21 10:18:55;;;;;;;4.70;4.30;;;19.30;61.80;;;;;;5068343;28;20493;-78
2022/04/21 10:21:30;;;;;;;5.23;4.80;;;19.20;61.80;;;;;;5060364;28;20486;-76
2022/04/21 10:23:57;;;;;;;4.20;3.80;;;19.10;59.40;;;;;;5067336;28;20663;-75
2022/04/21 10:26:37;;;;;;;4.43;3.83;;;19.40;62.30;;;;;;5067669;28;20911;-78
2022/04/21 10:29:15;;;;;;;3.83;3.53;;;19.50;61.90;;;;;;5063913;28;20473;-76
2022/04/21 10:31:51;;;;;;;8.37;3.27;;;19.50;61.70;;;;;;5052797;28;20478;-78
2022/04/21 10:34:34;;;;;;;3.90;3.40;;;19.40;60.00;;;;;;5055951;28;20481;-73
2022/04/21 10:37:17;;;;;;;4.43;3.60;;;19.50;61.70;;;;;;5062854;28;20478;-71
2022/04/21 10:40:06;;;;;;;4.53;3.10;;;19.70;62.00;;;;;;5054988;28;20503;-70
2022/04/21 10:42:57;;;;;;;2.93;2.63;;;19.90;61.50;;;;;;5067111;28;20474;-73
2022/04/21 10:45:27;;;;;;;3.33;2.80;;;19.70;60.00;;;;;;5064629;28;20474;-75
2022/04/21 10:48:05;;;;;;;3.13;2.80;;;19.60;60.10;;;;;;5066282;28;20481;-73
2022/04/21 10:50:33;;;;;;;3.00;2.80;;;19.50;60.10;;;;;;5052543;28;20502;-74
2022/04/21 10:58:52;;;;;;;3.37;3.07;;;19.50;60.40;;;;;;5061566;28;20520;-74
2022/04/21 11:01:38;;;;;;;4.77;3.13;;;19.50;61.90;;;;;;5054240;28;20478;-77
2022/04/21 11:04:13;;;;;;;4.23;3.83;;;19.40;61.70;;;;;;5065691;28;21267;-74
2022/04/21 11:06:42;;;;;;;4.10;3.77;;;19.40;63.00;;;;;;5060365;28;20488;-73
2022/04/21 11:09:41;;;;;;;4.77;4.37;;;19.30;60.60;;;;;;5060315;28;21134;-71
2022/04/21 11:12:09;;;;;;;11.20;4.53;;;19.20;60.90;;;;;;5054445;28;20474;-74
2022/04/21 11:14:39;;;;;;;4.87;3.90;;;19.00;61.90;;;;;;5059026;28;20487;-74
2022/04/21 11:17:08;;;;;;;7.33;3.63;;;18.90;61.50;;;;;;5064054;28;20510;-74
2022/04/21 11:19:45;;;;;;;3.67;3.37;;;18.90;62.00;;;;;;5065664;28;20479;-74
2022/04/21 11:22:15;;;;;;;2.97;2.67;;;19.10;62.30;;;;;;5065553;28;20947;-73
2022/04/21 11:25:02;;;;;;;4.40;3.77;;;19.10;61.40;;;;;;5066606;28;21171;-78
2022/04/21 11:27:31;;;;;;;3.90;3.53;;;19.30;62.40;;;;;;5054632;28;20559;-76
2022/04/21 11:30:02;;;;;;;3.70;3.40;;;19.50;62.30;;;;;;5060038;28;20487;-75
2022/04/21 11:32:30;;;;;;;3.80;2.60;;;19.70;63.90;;;;;;5078234;28;20486;-74
2022/04/21 11:35:02;;;;;;;3.50;3.20;;;19.90;61.00;;;;;;5062853;28;20470;-77
2022/04/21 11:37:52;;;;;;;4.30;3.30;;;19.90;59.10;;;;;;5065748;28;20481;-77
2022/04/21 11:40:31;;;;;;;3.13;2.83;;;19.80;60.70;;;;;;5065492;28;20470;-77
2022/04/21 11:42:59;;;;;;;3.57;3.17;;;19.80;60.90;;;;;;5064890;28;20478;-76
2022/04/21 11:45:28;;;;;;;3.50;3.20;;;19.80;61.80;;;;;;5065685;28;20966;-76
2022/04/21 11:47:56;;;;;;;5.40;2.80;;;20.00;61.40;;;;;;5061647;28;20490;-77
2022/04/21 11:50:27;;;;;;;3.80;3.10;;;20.00;60.30;;;;;;5071314;28;20762;-74
2022/04/21 11:52:55;;;;;;;4.27;2.90;;;20.00;60.80;;;;;;5058332;28;20774;-76
2022/04/21 11:55:23;;;;;;;4.70;2.93;;;20.30;61.30;;;;;;5053168;28;20475;-74
2022/04/21 11:57:50;;;;;;;2.93;2.63;;;20.40;62.20;;;;;;5068976;28;20469;-78
2022/04/21 12:06:27;;;;;;;3.90;3.23;;;20.40;59.60;;;;;;5066873;28;21013;-76
2022/04/21 12:08:40;;;;;;;3.13;2.63;;;20.50;59.90;;;;;;5067834;28;21019;-79
2022/04/21 12:11:10;;;;;;;3.70;2.53;;;20.30;59.50;;;;;;5062162;28;20473;-73
2022/04/21 12:13:38;;;;;;;4.30;3.20;;;20.00;59.40;;;;;;5073199;28;20567;-77
2022/04/21 12:16:25;;;;;;;6.33;2.93;;;19.90;59.20;;;;;;5068161;28;20476;-78
2022/04/21 12:18:54;;;;;;;3.40;3.10;;;20.00;60.40;;;;;;5059917;28;21069;-76
2022/04/21 12:21:35;;;;;;;2.67;2.47;;;19.90;59.00;;;;;;5069895;28;20489;-74
2022/04/21 12:24:14;;;;;;;2.97;2.67;;;20.00;59.60;;;;;;5059342;28;20474;-75
2022/04/21 12:26:49;;;;;;;3.40;2.87;;;20.10;59.70;;;;;;5062192;28;20473;-79
2022/04/21 12:29:16;;;;;;;3.80;2.53;;;20.30;61.10;;;;;;5072864;28;20482;-73
2022/04/21 12:31:44;;;;;;;5.07;2.83;;;20.40;59.60;;;;;;5067246;28;20487;-77
2022/04/21 12:34:13;;;;;;;3.23;2.03;;;20.50;58.10;;;;;;5065835;28;21260;-76
2022/04/21 12:36:54;;;;;;;3.33;2.80;;;20.60;59.80;;;;;;5063673;28;20855;-75
2022/04/21 12:39:22;;;;;;;3.60;3.30;;;20.70;59.40;;;;;;5065806;28;20983;-80
2022/04/21 12:41:50;;;;;;;5.10;2.53;;;20.70;59.10;;;;;;5071019;28;20489;-79
2022/04/21 12:44:19;;;;;;;2.70;2.50;;;20.60;59.10;;;;;;5068742;28;20484;-76
2022/04/21 12:47:00;;;;;;;3.67;2.63;;;20.40;58.00;;;;;;5065348;28;20486;-75
2022/04/21 12:49:56;;;;;;;4.03;3.73;;;20.20;58.60;;;;;;5066735;28;20830;-76
2022/04/21 12:52:45;;;;;;;3.37;3.07;;;20.20;60.30;;;;;;5054320;28;20777;-78
2022/04/21 12:55:23;;;;;;;3.60;3.30;;;20.30;60.00;;;;;;5063588;28;20471;-76
2022/04/21 12:58:02;;;;;;;3.10;2.73;;;20.40;62.10;;;;;;5068215;28;20711;-76
2022/04/21 13:00:29;;;;;;;2.90;2.50;;;20.60;60.30;;;;;;5068366;28;20487;-73
2022/04/21 13:02:56;;;;;;;2.90;2.63;;;20.80;59.50;;;;;;5068771;28;20478;-73
2022/04/21 13:05:25;;;;;;;3.47;2.63;;;21.00;60.40;;;;;;5066640;28;20790;-79
2022/04/21 13:07:53;;;;;;;4.07;2.80;;;20.90;59.30;;;;;;5067527;28;20481;-77
2022/04/21 13:10:21;;;;;;;5.73;4.50;;;20.60;58.00;;;;;;5052018;28;20479;-77
2022/04/21 13:12:49;;;;;;;3.53;2.63;;;20.40;59.20;;;;;;5080093;28;20492;-76
2022/04/21 13:15:16;;;;;;;4.07;2.10;;;20.30;58.40;;;;;;5070632;28;20709;-75
2022/04/21 13:17:43;;;;;;;3.60;3.30;;;20.30;58.70;;;;;;5065934;28;20477;-80
2022/04/21 13:21:52;;;;;;;3.87;3.33;;;20.30;60.90;;;;;;5061818;28;20782;-84
2022/04/21 13:22:58;;;;;;;6.50;3.40;;;20.30;60.90;;;;;;5055815;28;20482;-79
2022/04/21 13:25:25;;;;;;;8.33;3.03;;;20.50;60.30;;;;;;5069237;28;20483;-75
2022/04/21 13:27:52;;;;;;;5.20;3.57;;;20.60;60.70;;;;;;5069751;28;20488;-77
2022/04/21 13:30:21;;;;;;;3.63;2.77;;;20.50;58.40;;;;;;5062274;28;20770;-76
2022/04/21 13:35:32;;;;;;;3.50;2.73;;;20.30;59.30;;;;;;5061477;28;20516;-78
2022/04/21 13:38:00;;;;;;;3.87;2.80;;;20.40;59.60;;;;;;5068564;28;20481;-76
2022/04/21 13:40:30;;;;;;;3.47;2.80;;;20.60;61.50;;;;;;5064601;28;20793;-77
2022/04/21 13:42:57;;;;;;;4.93;4.07;;;20.70;60.10;;;;;;5064788;28;20483;-75
2022/04/21 13:45:23;;;;;;;3.97;3.30;;;20.90;60.20;;;;;;5065631;28;20466;-75
2022/04/21 13:47:50;;;;;;;7.80;3.50;;;21.10;61.10;;;;;;5043579;28;20973;-76
2022/04/21 13:50:17;;;;;;;4.30;3.90;;;21.40;61.80;;;;;;5048616;28;20477;-77